createdAt,value
2022-12-01T00:00:27.699Z,18.83
2022-12-01T00:03:13.387Z,20.83
2022-12-01T00:06:00.278Z,17.25
2022-12-01T00:09:07.291Z,14.48
2022-12-01T00:11:52.898Z,23.58
2022-12-01T00:14:38.586Z,20.10
2022-12-01T00:17:23.851Z,14.13
2022-12-01T00:20:10.119Z,23.38
2022-12-01T00:22:55.464Z,17.25
2022-12-01T00:25:42.758Z,24.33
2022-12-01T00:28:28.806Z,19.52
2022-12-01T00:31:14.543Z,16.90
2022-12-01T00:34:00.145Z,15.80
2022-12-01T00:36:45.817Z,12.70
2022-12-01T00:39:31.638Z,12.70
2022-12-01T00:42:17.243Z,14.30
2022-12-01T00:45:02.515Z,27.90
2022-12-01T00:47:47.932Z,14.88
2022-12-01T00:50:33.418Z,13.25
2022-12-01T00:53:19.033Z,13.30
2022-12-01T00:56:04.833Z,12.23
2022-12-01T00:58:53.073Z,19.25
2022-12-01T01:01:39.255Z,18.25
2022-12-01T01:04:25.261Z,14.27
2022-12-01T01:07:10.702Z,16.80
2022-12-01T01:09:56.552Z,17.90
2022-12-01T01:12:41.904Z,20.63
2022-12-01T01:15:27.451Z,14.88
2022-12-01T01:18:13.058Z,10.25
2022-12-01T01:21:00.441Z,17.23
2022-12-01T01:23:46.190Z,20.77
2022-12-01T01:26:33.313Z,12.70
2022-12-01T01:29:19.500Z,13.53
2022-12-01T01:32:05.212Z,12.15
2022-12-01T01:34:50.390Z,15.52
2022-12-01T01:37:36.005Z,16.30
2022-12-01T01:40:21.378Z,16.58
2022-12-01T01:43:15.143Z,20.20
2022-12-01T01:46:00.576Z,12.60
2022-12-01T01:49:09.872Z,15.00
2022-12-01T01:51:57.676Z,14.15
2022-12-01T01:54:46.806Z,21.17
2022-12-01T01:57:34.091Z,10.23
2022-12-01T02:00:21.565Z,15.13
2022-12-01T02:03:12.278Z,19.23
2022-12-01T02:06:04.526Z,13.00
2022-12-01T02:08:51.065Z,11.93
2022-12-01T02:11:50.907Z,13.23
2022-12-01T02:14:47.856Z,12.98
2022-12-01T02:17:45.451Z,9.68
2022-12-01T02:20:33.878Z,12.85
2022-12-01T02:23:41.158Z,19.10
2022-12-01T02:27:01.198Z,11.48
2022-12-01T02:29:55.672Z,14.15
2022-12-01T02:33:02.437Z,17.40
2022-12-01T02:35:54.915Z,15.95
2022-12-01T02:38:53.104Z,13.88
2022-12-01T02:41:48.475Z,10.85
2022-12-01T02:44:39.015Z,13.82
2022-12-01T02:47:25.408Z,14.13
2022-12-01T02:50:12.900Z,13.23
2022-12-01T02:53:00.114Z,16.05
2022-12-01T02:55:54.476Z,14.00
2022-12-01T02:58:40.181Z,14.07
2022-12-01T03:01:52.683Z,14.88
2022-12-01T03:04:45.007Z,13.27
2022-12-01T03:07:52.396Z,12.75
2022-12-01T03:10:58.668Z,14.37
2022-12-01T03:13:55.272Z,12.55
2022-12-01T03:16:54.115Z,16.50
2022-12-01T03:19:49.269Z,7.47
2022-12-01T03:22:42.076Z,12.75
2022-12-01T03:25:29.301Z,10.07
2022-12-01T03:28:22.269Z,24.73
2022-12-01T03:31:14.614Z,12.70
2022-12-01T03:34:12.963Z,8.15
2022-12-01T03:37:04.027Z,13.82
2022-12-01T03:39:53.709Z,14.27
2022-12-01T03:42:48.315Z,17.95
2022-12-01T03:45:58.691Z,13.98
2022-12-01T03:48:45.265Z,8.52
2022-12-01T03:52:01.087Z,10.77
2022-12-01T03:54:54.972Z,11.02
2022-12-01T03:57:56.527Z,26.45
2022-12-01T04:00:42.032Z,12.43
2022-12-01T04:03:28.246Z,13.02
2022-12-01T04:06:14.688Z,12.88
2022-12-01T04:08:59.874Z,19.75
2022-12-01T04:12:04.080Z,13.45
2022-12-01T04:14:50.119Z,14.77
2022-12-01T04:17:36.076Z,20.80
2022-12-01T04:20:22.419Z,18.92
2022-12-01T04:23:08.024Z,11.45
2022-12-01T04:26:00.089Z,17.52
2022-12-01T04:28:45.375Z,11.85
2022-12-01T04:31:31.502Z,19.33
2022-12-01T04:34:17.248Z,20.77
2022-12-01T04:37:03.875Z,17.30
2022-12-01T04:39:50.114Z,14.40
2022-12-01T04:42:38.637Z,10.55
2022-12-01T04:45:24.425Z,26.85
2022-12-01T04:48:09.834Z,15.45
2022-12-01T04:50:55.238Z,19.02
2022-12-01T04:53:40.525Z,21.67
2022-12-01T04:56:26.151Z,16.95
2022-12-01T04:59:12.226Z,14.73
2022-12-01T05:01:57.870Z,9.15
2022-12-01T05:04:48.008Z,22.73
2022-12-01T05:07:33.382Z,19.17
2022-12-01T05:10:19.251Z,24.27
2022-12-01T05:13:05.872Z,18.75
2022-12-01T05:15:51.463Z,21.03
2022-12-01T05:18:37.046Z,10.90
2022-12-01T05:21:22.782Z,16.52
2022-12-01T05:24:09.708Z,14.85
2022-12-01T05:26:55.120Z,15.57
2022-12-01T05:29:40.691Z,26.10
2022-12-01T05:32:26.212Z,21.48
2022-12-01T05:35:11.519Z,18.30
2022-12-01T05:37:57.106Z,13.82
2022-12-01T05:40:42.653Z,17.55
2022-12-01T05:43:29.620Z,29.33
2022-12-01T05:46:15.503Z,11.98
2022-12-01T05:49:01.003Z,10.70
2022-12-01T05:51:46.705Z,19.67
2022-12-01T05:54:32.090Z,28.67
2022-12-01T05:57:17.455Z,24.00
2022-12-01T06:00:05.827Z,24.08
2022-12-01T06:02:56.724Z,24.92
2022-12-01T06:05:42.156Z,14.93
2022-12-01T06:08:27.832Z,15.65
2022-12-01T06:11:13.559Z,14.38
2022-12-01T06:13:58.891Z,37.38
2022-12-01T06:16:44.471Z,19.67
2022-12-01T06:19:29.701Z,17.70
2022-12-01T06:22:15.260Z,24.35
2022-12-01T06:25:00.756Z,12.57
2022-12-01T06:27:46.259Z,21.05
2022-12-01T06:30:31.890Z,20.50
2022-12-01T06:33:18.066Z,11.77
2022-12-01T06:36:06.938Z,15.23
2022-12-01T06:38:52.553Z,9.13
2022-12-01T06:41:38.301Z,17.50
2022-12-01T06:44:23.960Z,16.27
2022-12-01T06:47:09.512Z,14.40
2022-12-01T06:49:55.016Z,11.93
2022-12-01T06:52:40.755Z,40.85
2022-12-01T06:55:26.368Z,51.03
2022-12-01T06:58:12.157Z,54.88
2022-12-01T07:01:00.807Z,13.65
2022-12-01T07:03:50.906Z,37.53
2022-12-01T07:06:36.824Z,25.90
2022-12-01T07:09:24.724Z,37.58
2022-12-01T07:12:10.266Z,21.83
2022-12-01T07:14:55.522Z,10.75
2022-12-01T07:17:40.925Z,12.85
2022-12-01T07:20:26.350Z,18.10
2022-12-01T07:23:11.840Z,10.68
2022-12-01T07:26:26.591Z,18.27
2022-12-01T07:29:12.227Z,13.88
2022-12-01T07:31:57.697Z,6.70
2022-12-01T07:34:43.538Z,25.45
2022-12-01T07:37:28.728Z,11.63
2022-12-01T07:40:14.769Z,29.45
2022-12-01T07:43:00.447Z,23.02
2022-12-01T07:45:46.115Z,18.92
2022-12-01T07:48:31.671Z,11.45
2022-12-01T07:51:17.490Z,17.80
2022-12-01T07:54:04.855Z,13.07
2022-12-01T07:56:50.128Z,22.92
2022-12-01T07:59:35.662Z,17.52
2022-12-01T08:02:21.371Z,11.05
2022-12-01T08:05:07.793Z,18.33
2022-12-01T08:07:54.054Z,16.98
2022-12-01T08:10:39.390Z,16.23
2022-12-01T08:13:24.933Z,18.35
2022-12-01T08:16:15.461Z,20.20
2022-12-01T08:19:00.851Z,11.02
2022-12-01T08:21:46.334Z,15.68
2022-12-01T08:24:31.809Z,33.42
2022-12-01T08:27:17.240Z,13.77
2022-12-01T08:30:02.774Z,21.00
2022-12-01T08:32:48.155Z,23.15
2022-12-01T08:35:36.277Z,18.25
2022-12-01T08:38:21.914Z,12.32
2022-12-01T08:41:09.156Z,10.32
2022-12-01T08:43:58.413Z,26.23
2022-12-01T08:46:44.898Z,11.98
2022-12-01T08:49:30.379Z,26.33
2022-12-01T08:52:15.824Z,29.40
2022-12-01T08:55:01.489Z,20.98
2022-12-01T08:57:46.908Z,27.58
2022-12-01T09:00:32.242Z,31.05
2022-12-01T09:03:17.906Z,18.13
2022-12-01T09:06:08.363Z,20.70
2022-12-01T09:08:53.726Z,17.73
2022-12-01T09:11:40.211Z,17.10
2022-12-01T09:14:25.676Z,20.30
2022-12-01T09:17:11.415Z,31.95
2022-12-01T09:19:56.727Z,20.65
2022-12-01T09:22:42.410Z,19.95
2022-12-01T09:25:28.474Z,17.30
2022-12-01T09:28:14.219Z,22.52
2022-12-01T09:31:11.346Z,23.58
2022-12-01T09:33:59.393Z,25.42
2022-12-01T09:36:46.126Z,26.40
2022-12-01T09:39:31.682Z,29.80
2022-12-01T09:42:18.803Z,27.55
2022-12-01T09:45:05.497Z,21.73
2022-12-01T09:47:54.383Z,33.38
2022-12-01T09:50:39.485Z,31.75
2022-12-01T09:53:28.938Z,28.35
2022-12-01T09:56:22.351Z,24.25
2022-12-01T09:59:14.469Z,19.05
2022-12-01T10:02:03.369Z,26.38
2022-12-01T10:04:52.564Z,28.98
2022-12-01T10:07:49.243Z,22.08
2022-12-01T10:10:43.050Z,21.52
2022-12-01T10:13:29.238Z,27.63
2022-12-01T10:16:24.745Z,19.80
2022-12-01T10:19:47.940Z,34.85
2022-12-01T10:22:33.342Z,30.27
2022-12-01T10:25:25.697Z,28.42
2022-12-01T10:28:29.775Z,34.80
2022-12-01T10:31:31.190Z,35.58
2022-12-01T10:34:21.637Z,39.15
2022-12-01T10:37:21.052Z,31.63
2022-12-01T10:40:15.965Z,30.45
2022-12-01T10:43:02.323Z,33.28
2022-12-01T10:45:48.110Z,26.25
2022-12-01T10:48:51.356Z,30.17
2022-12-01T10:51:56.716Z,28.70
2022-12-01T10:54:41.855Z,27.92
2022-12-01T10:57:30.624Z,27.00
2022-12-01T11:00:51.405Z,37.00
2022-12-01T11:03:33.705Z,32.65
2022-12-01T11:06:25.641Z,33.40
2022-12-01T11:09:26.371Z,38.90
2022-12-01T11:12:17.546Z,39.60
2022-12-01T11:15:04.912Z,26.98
2022-12-01T11:18:01.429Z,30.73
2022-12-01T11:20:47.089Z,23.80
2022-12-01T11:23:36.489Z,30.42
2022-12-01T11:26:28.685Z,46.97
2022-12-01T11:29:30.432Z,39.95
2022-12-01T11:32:24.298Z,24.83
2022-12-01T11:35:13.042Z,31.45
2022-12-01T11:41:26.969Z,26.95
2022-12-01T11:47:27.847Z,24.75
2022-12-01T11:50:25.766Z,23.40
2022-12-01T11:53:31.684Z,23.73
2022-12-01T11:56:23.811Z,22.60
2022-12-01T11:59:15.047Z,35.45
2022-12-01T12:02:03.441Z,29.08
2022-12-01T12:05:08.015Z,26.48
2022-12-01T12:08:13.902Z,18.63
2022-12-01T12:11:05.270Z,23.70
2022-12-01T12:14:26.463Z,18.80
2022-12-01T12:17:41.473Z,22.70
2022-12-01T12:20:36.746Z,29.70
2022-12-01T12:23:44.827Z,22.58
2022-12-01T12:26:51.813Z,21.70
2022-12-01T12:30:15.386Z,27.50
2022-12-01T12:33:38.570Z,25.42
2022-12-01T12:36:30.581Z,27.77
2022-12-01T12:39:38.233Z,27.40
2022-12-01T12:42:26.720Z,25.52
2022-12-01T12:45:25.054Z,31.25
2022-12-01T12:51:09.891Z,25.17
2022-12-01T12:54:27.932Z,23.45
2022-12-01T12:57:45.252Z,27.88
2022-12-01T13:00:31.053Z,23.48
2022-12-01T13:03:34.179Z,23.63
2022-12-01T13:06:32.907Z,24.95
2022-12-01T13:09:23.530Z,22.50
2022-12-01T13:12:19.378Z,23.73
2022-12-01T13:15:17.632Z,26.35
2022-12-01T13:20:53.750Z,21.17
2022-12-01T13:23:40.039Z,25.67
2022-12-01T13:26:25.957Z,17.27
2022-12-01T13:29:17.325Z,24.80
2022-12-01T13:32:03.342Z,31.95
2022-12-01T13:34:49.116Z,31.88
2022-12-01T13:37:38.362Z,27.25
2022-12-01T13:40:25.430Z,28.15
2022-12-01T13:43:20.077Z,23.98
2022-12-01T13:46:05.907Z,23.85
2022-12-01T13:48:55.329Z,24.27
2022-12-01T13:52:29.239Z,21.95
2022-12-01T13:55:15.386Z,14.77
2022-12-01T13:58:01.424Z,20.98
2022-12-01T14:00:47.110Z,26.48
2022-12-01T14:03:39.601Z,18.27
2022-12-01T14:06:31.057Z,18.67
2022-12-01T14:09:33.452Z,13.57
2022-12-01T14:12:34.514Z,26.15
2022-12-01T14:15:40.348Z,28.33
2022-12-01T14:18:34.173Z,25.40
2022-12-01T14:21:44.956Z,30.15
2022-12-01T14:24:40.564Z,25.52
2022-12-01T14:27:39.608Z,21.60
2022-12-01T14:30:45.169Z,32.00
2022-12-01T14:33:40.683Z,25.88
2022-12-01T14:36:42.258Z,26.00
2022-12-01T14:39:32.110Z,27.38
2022-12-01T14:42:51.876Z,25.88
2022-12-01T14:45:49.982Z,22.38
2022-12-01T14:48:43.147Z,25.35
2022-12-01T14:51:33.055Z,23.67
2022-12-01T14:54:29.027Z,19.58
2022-12-01T14:57:18.735Z,48.33
2022-12-01T15:00:04.991Z,38.47
2022-12-01T15:02:56.649Z,25.65
2022-12-01T15:05:43.560Z,24.70
2022-12-01T15:08:42.124Z,22.80
2022-12-01T15:11:30.321Z,29.05
2022-12-01T15:14:29.449Z,34.10
2022-12-01T15:17:37.222Z,27.05
2022-12-01T15:20:31.734Z,19.58
2022-12-01T15:23:17.327Z,21.92
2022-12-01T15:26:03.684Z,23.70
2022-12-01T15:28:49.398Z,59.85
2022-12-01T15:31:35.906Z,65.93
2022-12-01T15:34:25.069Z,44.85
2022-12-01T15:37:23.022Z,62.65
2022-12-01T15:40:59.560Z,91.28
2022-12-01T15:43:28.267Z,71.78
2022-12-01T15:46:20.010Z,42.70
2022-12-01T15:49:08.649Z,37.88
2022-12-01T15:51:56.144Z,52.55
2022-12-01T15:54:47.988Z,53.70
2022-12-01T15:57:35.362Z,41.78
2022-12-01T16:00:22.468Z,32.25
2022-12-01T16:03:15.133Z,30.47
2022-12-01T16:06:00.949Z,24.23
2022-12-01T16:09:36.038Z,19.48
2022-12-01T16:12:27.466Z,23.42
2022-12-01T16:15:22.316Z,38.03
2022-12-01T16:18:28.848Z,32.78
2022-12-01T16:21:14.309Z,55.30
2022-12-01T16:24:05.834Z,64.53
2022-12-01T16:27:17.270Z,66.65
2022-12-01T16:30:08.288Z,63.85
2022-12-01T16:33:05.442Z,48.75
2022-12-01T16:35:52.162Z,38.40
2022-12-01T16:38:37.962Z,30.00
2022-12-01T16:41:38.321Z,33.50
2022-12-01T16:44:28.835Z,34.67
2022-12-01T16:47:20.937Z,39.78
2022-12-01T16:50:06.840Z,54.22
2022-12-01T16:52:52.335Z,49.15
2022-12-01T16:55:37.772Z,37.65
2022-12-01T16:58:23.818Z,24.95
2022-12-01T17:01:09.125Z,39.67
2022-12-01T17:03:54.833Z,65.82
2022-12-01T17:06:40.199Z,114.68
2022-12-01T17:09:26.018Z,99.40
2022-12-01T17:12:11.537Z,80.18
2022-12-01T17:14:56.780Z,47.92
2022-12-01T17:17:43.075Z,76.68
2022-12-01T17:20:28.324Z,76.55
2022-12-01T17:23:13.642Z,81.72
2022-12-01T17:26:00.470Z,34.00
2022-12-01T17:28:45.751Z,22.92
2022-12-01T17:31:31.283Z,26.95
2022-12-01T17:34:16.683Z,28.17
2022-12-01T17:37:02.121Z,28.98
2022-12-01T17:39:48.244Z,19.67
2022-12-01T17:42:34.937Z,28.02
2022-12-01T17:45:20.132Z,25.73
2022-12-01T17:48:09.064Z,29.95
2022-12-01T17:50:54.650Z,28.90
2022-12-01T17:53:40.669Z,26.15
2022-12-01T17:56:26.027Z,33.55
2022-12-01T17:59:11.843Z,28.40
2022-12-01T18:01:57.925Z,30.92
2022-12-01T18:04:43.705Z,37.97
2022-12-01T18:07:30.100Z,35.90
2022-12-01T18:10:15.584Z,46.58
2022-12-01T18:13:01.158Z,36.55
2022-12-01T18:15:47.063Z,37.67
2022-12-01T18:18:32.727Z,32.38
2022-12-01T18:21:20.604Z,29.30
2022-12-01T18:24:08.861Z,30.52
2022-12-01T18:26:54.700Z,27.02
2022-12-01T18:29:40.730Z,32.45
2022-12-01T18:32:26.394Z,25.50
2022-12-01T18:35:12.621Z,27.55
2022-12-01T18:37:58.313Z,36.35
2022-12-01T18:40:44.731Z,35.22
2022-12-01T18:43:32.331Z,34.88
2022-12-01T18:46:19.650Z,32.03
2022-12-01T18:51:52.374Z,27.77
2022-12-01T18:54:38.097Z,25.25
2022-12-01T18:57:23.900Z,17.15
2022-12-01T19:00:10.244Z,51.92
2022-12-01T19:02:56.336Z,70.05
2022-12-01T19:05:42.109Z,37.38
2022-12-01T19:08:27.529Z,21.90
2022-12-01T19:11:13.156Z,41.85
2022-12-01T19:13:59.037Z,28.80
2022-12-01T19:16:46.020Z,27.98
2022-12-01T19:19:37.338Z,24.98
2022-12-01T19:22:23.616Z,23.90
2022-12-01T19:25:11.606Z,22.30
2022-12-01T19:27:57.156Z,29.75
2022-12-01T19:30:47.922Z,40.53
2022-12-01T19:33:34.980Z,25.90
2022-12-01T19:36:23.879Z,42.42
2022-12-01T19:39:09.775Z,51.22
2022-12-01T19:41:57.144Z,55.20
2022-12-01T19:44:42.984Z,32.38
2022-12-01T19:47:33.287Z,33.28
2022-12-01T19:50:19.398Z,35.53
2022-12-01T19:53:05.100Z,27.10
2022-12-01T19:55:50.687Z,29.48
2022-12-01T19:58:36.326Z,20.45
2022-12-01T20:01:22.232Z,27.52
2022-12-01T20:04:08.084Z,29.52
2022-12-01T20:06:53.672Z,26.65
2022-12-01T20:09:39.780Z,25.90
2022-12-01T20:12:25.467Z,23.75
2022-12-01T20:15:11.580Z,29.75
2022-12-01T20:17:57.064Z,22.05
2022-12-01T20:20:42.669Z,22.40
2022-12-01T20:23:28.450Z,17.40
2022-12-01T20:26:15.301Z,24.50
2022-12-01T20:29:04.899Z,21.15
2022-12-01T20:31:52.321Z,28.23
2022-12-01T20:34:38.259Z,19.63
2022-12-01T20:37:23.509Z,33.30
2022-12-01T20:40:10.042Z,24.58
2022-12-01T20:42:55.591Z,22.23
2022-12-01T20:45:41.303Z,31.52
2022-12-01T20:48:26.751Z,27.38
2022-12-01T20:51:14.944Z,21.80
2022-12-01T20:54:26.892Z,29.73
2022-12-01T20:57:07.651Z,27.10
2022-12-01T20:59:53.183Z,19.48
2022-12-01T21:02:39.553Z,26.05
2022-12-01T21:05:26.089Z,30.02
2022-12-01T21:08:13.708Z,19.58
2022-12-01T21:11:05.367Z,23.65
2022-12-01T21:13:50.894Z,23.05
2022-12-01T21:16:38.340Z,22.52
2022-12-01T21:19:45.506Z,36.33
2022-12-01T21:22:31.151Z,17.17
2022-12-01T21:25:22.847Z,29.00
2022-12-01T21:28:28.274Z,33.83
2022-12-01T21:31:15.571Z,16.13
2022-12-01T21:34:02.206Z,19.50
2022-12-01T21:36:49.363Z,28.98
2022-12-01T21:42:25.462Z,28.67
2022-12-01T21:45:32.222Z,14.30
2022-12-01T21:48:23.150Z,24.05
2022-12-01T21:51:25.066Z,17.85
2022-12-01T21:54:15.591Z,30.90
2022-12-01T21:57:01.342Z,19.08
2022-12-01T21:59:46.712Z,27.55
2022-12-01T22:02:50.770Z,23.20
2022-12-01T22:06:13.592Z,30.45
2022-12-01T22:08:57.772Z,17.73
2022-12-01T22:11:47.715Z,16.60
2022-12-01T22:14:35.641Z,25.02
2022-12-01T22:17:22.503Z,17.95
2022-12-01T22:20:22.473Z,22.63
2022-12-01T22:23:12.679Z,32.25
2022-12-01T22:25:58.495Z,22.73
2022-12-01T22:28:44.582Z,23.42
2022-12-01T22:31:31.716Z,16.58
2022-12-01T22:34:20.346Z,28.85
2022-12-01T22:37:19.550Z,50.50
2022-12-01T22:40:34.130Z,24.55
2022-12-01T22:43:27.376Z,38.95
2022-12-01T22:46:33.011Z,39.28
2022-12-01T22:49:23.880Z,46.75
2022-12-01T22:52:30.586Z,26.25
2022-12-01T22:55:19.891Z,24.63
2022-12-01T22:58:23.676Z,33.72
2022-12-01T23:01:28.327Z,25.63
2022-12-01T23:04:27.449Z,29.17
2022-12-01T23:07:35.633Z,16.98
2022-12-01T23:10:24.277Z,16.42
2022-12-01T23:13:16.305Z,22.38
2022-12-01T23:16:01.979Z,26.88
2022-12-01T23:18:47.798Z,35.47
2022-12-01T23:21:33.487Z,26.23
2022-12-01T23:24:19.156Z,28.50
2022-12-01T23:27:06.911Z,18.75
2022-12-01T23:32:37.919Z,26.35
2022-12-01T23:35:23.306Z,36.00
2022-12-01T23:38:18.658Z,26.98
2022-12-01T23:41:25.466Z,31.42
2022-12-01T23:44:41.401Z,32.10
2022-12-01T23:47:29.538Z,40.00
2022-12-01T23:50:41.586Z,25.58
2022-12-01T23:53:30.187Z,26.00
2022-12-01T23:56:27.721Z,37.00
2022-12-01T23:59:14.474Z,16.25
